createdAt,value
2018-02-13T00:00:35.383Z,86.56
2018-02-13T00:01:35.395Z,85.99
2018-02-13T00:02:35.408Z,86.09
2018-02-13T00:03:35.167Z,86.56
2018-02-13T00:04:35.429Z,86.52
2018-02-13T00:05:35.443Z,86.23
2018-02-13T00:06:35.201Z,86.28
2018-02-13T00:07:35.463Z,86.14
2018-02-13T00:08:35.472Z,86.52
2018-02-13T00:09:35.484Z,86.28
2018-02-13T00:10:35.498Z,86.09
2018-02-13T00:11:35.517Z,86.37
2018-02-13T00:12:35.271Z,85.85
2018-02-13T00:13:35.280Z,86.28
2018-02-13T00:14:35.291Z,86.23
2018-02-13T00:15:35.551Z,86.18
2018-02-13T00:16:35.564Z,86.37
2018-02-13T00:17:35.575Z,85.85
2018-02-13T00:18:35.589Z,86.23
2018-02-13T00:19:35.600Z,86.37
2018-02-13T00:20:35.606Z,86.28
2018-02-13T00:21:35.617Z,86.37
2018-02-13T00:22:35.378Z,86.37
2018-02-13T00:23:35.643Z,86.18
2018-02-13T00:24:35.657Z,86.33
2018-02-13T00:25:35.663Z,86.18
2018-02-13T00:26:35.421Z,86.47
2018-02-13T00:27:35.697Z,85.42
2018-02-13T00:28:35.701Z,85.71
2018-02-13T00:29:35.763Z,85.9
2018-02-13T00:30:35.721Z,85.8
2018-02-13T00:31:35.482Z,85.52
2018-02-13T00:33:35.754Z,85.8
2018-02-13T00:34:35.514Z,85.9
2018-02-13T00:35:35.825Z,85.99
2018-02-13T00:36:35.532Z,85.24
2018-02-13T00:37:35.541Z,85.71
2018-02-13T00:38:35.807Z,85.33
2018-02-13T00:39:35.572Z,85.33
2018-02-13T00:40:35.832Z,85.99
2018-02-13T00:41:35.840Z,85.14
2018-02-13T00:42:35.604Z,85.9
2018-02-13T00:43:35.863Z,85.52
2018-02-13T00:44:35.875Z,85.61
2018-02-13T00:45:35.886Z,85.71
2018-02-13T00:46:35.907Z,85.71
2018-02-13T00:47:35.910Z,85.8
2018-02-13T00:48:35.921Z,85.9
2018-02-13T00:49:35.682Z,85.8
2018-02-13T00:50:35.690Z,85.33
2018-02-13T00:51:36.030Z,85.61
2018-02-13T00:52:35.963Z,85.71
2018-02-13T00:53:35.723Z,85.61
2018-02-13T00:54:35.990Z,85.99
2018-02-13T00:55:36.000Z,85.24
2018-02-13T00:56:35.758Z,85.14
2018-02-13T00:57:36.019Z,85.24
2018-02-13T00:58:35.778Z,85.33
2018-02-13T00:59:35.789Z,85.05
2018-02-13T01:00:36.053Z,85.14
2018-02-13T01:01:35.818Z,84.77
2018-02-13T01:02:36.076Z,84.95
2018-02-13T01:03:35.836Z,85.14
2018-02-13T01:04:36.097Z,85.33
2018-02-13T01:05:35.857Z,85.14
2018-02-13T01:06:36.121Z,85.33
2018-02-13T01:07:36.147Z,85.05
2018-02-13T01:08:36.150Z,85.61
2018-02-13T01:09:35.901Z,85.8
2018-02-13T01:10:36.165Z,86.37
2018-02-13T01:11:35.925Z,86.28
2018-02-13T01:12:36.194Z,85.85
2018-02-13T01:13:36.198Z,86.28
2018-02-13T01:14:36.217Z,86.23
2018-02-13T01:15:35.977Z,86.47
2018-02-13T01:16:36.236Z,85.71
2018-02-13T01:17:36.256Z,86.37
2018-02-13T01:18:36.257Z,85.9
2018-02-13T01:19:36.265Z,86.56
2018-02-13T01:20:36.278Z,86.42
2018-02-13T01:21:36.292Z,86.66
2018-02-13T01:22:36.048Z,85.99
2018-02-13T01:23:36.064Z,85.99
2018-02-13T01:24:36.071Z,86.09
2018-02-13T01:25:36.336Z,86.47
2018-02-13T01:26:36.347Z,85.8
2018-02-13T01:27:36.105Z,85.61
2018-02-13T01:28:36.367Z,85.9
2018-02-13T01:29:36.379Z,85.99
2018-02-13T01:30:36.136Z,85.33
2018-02-13T01:31:36.402Z,85.24
2018-02-13T01:32:36.411Z,85.33
2018-02-13T01:33:36.423Z,85.42
2018-02-13T01:34:36.186Z,84.95
2018-02-13T01:35:36.442Z,85.42
2018-02-13T01:36:36.458Z,85.24
2018-02-13T01:37:36.467Z,85.33
2018-02-13T01:38:36.228Z,85.14
2018-02-13T01:39:36.499Z,85.24
2018-02-13T01:40:36.250Z,85.24
2018-02-13T01:41:36.513Z,85.8
2018-02-13T01:42:36.271Z,85.24
2018-02-13T01:43:36.535Z,85.24
2018-02-13T01:44:36.545Z,85.33
2018-02-13T01:45:36.307Z,85.42
2018-02-13T01:46:36.316Z,86.37
2018-02-13T01:47:36.327Z,86.14
2018-02-13T01:48:36.592Z,86.09
2018-02-13T01:49:36.601Z,85.71
2018-02-13T01:50:36.611Z,86.18
2018-02-13T01:51:36.621Z,86.18
2018-02-13T01:52:36.647Z,86.18
2018-02-13T01:53:36.394Z,85.99
2018-02-13T01:54:36.407Z,86.37
2018-02-13T01:55:36.678Z,86.18
2018-02-13T01:56:36.427Z,86.18
2018-02-13T01:57:36.457Z,85.71
2018-02-13T01:58:36.704Z,86.28
2018-02-13T01:59:36.716Z,85.95
2018-02-13T02:00:36.727Z,86.56
2018-02-13T02:01:36.738Z,85.99
2018-02-13T02:02:36.747Z,86.37
2018-02-13T02:03:36.759Z,86.37
2018-02-13T02:04:36.768Z,86.37
2018-02-13T02:05:36.529Z,86.18
2018-02-13T02:06:36.539Z,85.9
2018-02-13T02:07:36.810Z,85.8
2018-02-13T02:08:36.814Z,85.8
2018-02-13T02:09:36.572Z,85.61
2018-02-13T02:10:36.835Z,85.8
2018-02-13T02:11:36.853Z,86.18
2018-02-13T02:12:36.860Z,85.71
2018-02-13T02:13:36.868Z,85.71
2018-02-13T02:14:36.881Z,85.52
2018-02-13T02:15:36.892Z,85.24
2018-02-13T02:16:36.649Z,85.33
2018-02-13T02:17:36.663Z,85.52
2018-02-13T02:18:36.926Z,85.42
2018-02-13T02:19:36.940Z,85.33
2018-02-13T02:20:36.950Z,85.33
2018-02-13T02:21:36.959Z,85.05
2018-02-13T02:22:36.968Z,85.8
2018-02-13T02:23:36.986Z,85.8
2018-02-13T02:24:36.992Z,85.24
2018-02-13T02:25:37.009Z,85.9
2018-02-13T02:26:37.017Z,85.71
2018-02-13T02:27:37.030Z,85.52
2018-02-13T02:28:37.038Z,85.61
2018-02-13T02:29:36.797Z,85.61
2018-02-13T02:30:37.064Z,85.52
2018-02-13T02:31:36.822Z,85.52
2018-02-13T02:32:36.848Z,85.9
2018-02-13T02:33:36.849Z,85.71
2018-02-13T02:34:37.108Z,85.52
2018-02-13T02:35:36.866Z,86.28
2018-02-13T02:36:37.129Z,86.37
2018-02-13T02:37:37.144Z,85.99
2018-02-13T02:38:36.902Z,86.18
2018-02-13T02:39:36.915Z,85.99
2018-02-13T02:40:36.923Z,86.28
2018-02-13T02:41:37.189Z,86.37
2018-02-13T02:42:36.946Z,86.56
2018-02-13T02:43:37.210Z,86.09
2018-02-13T02:44:37.220Z,86.37
2018-02-13T02:45:37.232Z,85.9
2018-02-13T02:46:37.244Z,86.28
2018-02-13T02:47:37.026Z,85.99
2018-02-13T02:48:37.014Z,86.28
2018-02-13T02:49:37.275Z,85.9
2018-02-13T02:50:37.306Z,86.47
2018-02-13T02:51:37.296Z,86.28
2018-02-13T02:52:37.310Z,86.47
2018-02-13T02:53:37.065Z,85.9
2018-02-13T02:54:37.092Z,86.09
2018-02-13T02:55:37.353Z,86.56
2018-02-13T02:56:37.357Z,86.47
2018-02-13T02:57:37.371Z,85.99
2018-02-13T02:58:37.131Z,86.18
2018-02-13T02:59:37.392Z,86.28
2018-02-13T03:00:37.403Z,86.09
2018-02-13T03:01:37.417Z,85.99
2018-02-13T03:02:37.425Z,86.47
2018-02-13T03:03:37.442Z,86.56
2018-02-13T03:04:37.447Z,86.37
2018-02-13T03:05:37.207Z,86.47
2018-02-13T03:06:37.469Z,86.52
2018-02-13T03:07:37.232Z,86.18
2018-02-13T03:08:37.496Z,86.61
2018-02-13T03:09:37.507Z,86.75
2018-02-13T03:10:37.532Z,86.94
2018-02-13T03:11:37.279Z,86.99
2018-02-13T03:12:37.538Z,86.9
2018-02-13T03:13:37.297Z,86.42
2018-02-13T03:14:37.310Z,86.8
2018-02-13T03:15:37.337Z,86.66
2018-02-13T03:16:37.585Z,86.52
2018-02-13T03:17:37.597Z,87.08
2018-02-13T03:18:37.605Z,86.8
2018-02-13T03:19:37.616Z,86.9
2018-02-13T03:20:37.629Z,86.94
2018-02-13T03:21:37.640Z,86.47
2018-02-13T03:22:37.655Z,86.56
2018-02-13T03:23:37.416Z,86.56
2018-02-13T03:24:37.424Z,86.09
2018-02-13T03:25:37.433Z,86.75
2018-02-13T03:26:37.694Z,86.47
2018-02-13T03:27:37.458Z,86.37
2018-02-13T03:28:37.718Z,86.33
2018-02-13T03:29:37.729Z,86.33
2018-02-13T03:30:37.745Z,86.18
2018-02-13T03:31:37.751Z,86.42
2018-02-13T03:32:37.770Z,86.09
2018-02-13T03:33:37.522Z,86.33
2018-02-13T03:34:37.531Z,86.14
2018-02-13T03:35:37.797Z,86.14
2018-02-13T03:36:37.808Z,86.33
2018-02-13T03:37:37.815Z,86.33
2018-02-13T03:38:37.875Z,86.23
2018-02-13T03:39:37.582Z,86.71
2018-02-13T03:40:37.844Z,86.9
2018-02-13T03:41:37.619Z,86.71
2018-02-13T03:42:37.876Z,86.33
2018-02-13T03:43:37.888Z,86.9
2018-02-13T03:44:37.651Z,86.42
2018-02-13T03:45:37.904Z,86.14
2018-02-13T03:46:37.916Z,86.42
2018-02-13T03:47:37.928Z,86.56
2018-02-13T03:48:37.686Z,85.9
2018-02-13T03:49:37.957Z,85.95
2018-02-13T03:50:37.729Z,86.52
2018-02-13T03:51:37.721Z,86.47
2018-02-13T03:52:37.729Z,86.18
2018-02-13T03:53:37.994Z,85.99
2018-02-13T03:54:38.002Z,86.18
2018-02-13T03:55:38.011Z,85.47
2018-02-13T03:56:37.775Z,86.33
2018-02-13T03:57:37.795Z,86.42
2018-02-13T03:58:38.048Z,86.04
2018-02-13T03:59:38.062Z,86.14
2018-02-13T04:00:37.820Z,85.95
2018-02-13T04:01:37.829Z,86.23
2018-02-13T04:02:37.841Z,86.33
2018-02-13T04:03:38.101Z,86.47
2018-02-13T04:04:38.117Z,86.14
2018-02-13T04:05:37.875Z,86.04
2018-02-13T04:06:37.884Z,86.33
2018-02-13T04:07:38.158Z,86.33
2018-02-13T04:08:37.906Z,85.47
2018-02-13T04:09:38.170Z,85.47
2018-02-13T04:10:37.927Z,85.76
2018-02-13T04:11:37.940Z,86.42
2018-02-13T04:12:38.202Z,86.23
2018-02-13T04:13:37.967Z,86.23
2018-02-13T04:14:37.977Z,86.14
2018-02-13T04:15:37.982Z,86.14
2018-02-13T04:16:38.249Z,86.33
2018-02-13T04:17:38.007Z,86.14
2018-02-13T04:18:38.268Z,85.95
2018-02-13T04:19:38.276Z,86.33
2018-02-13T04:20:38.291Z,85.66
2018-02-13T04:21:38.051Z,86.14
2018-02-13T04:22:38.062Z,85.61
2018-02-13T04:23:38.071Z,85.66
2018-02-13T04:24:38.080Z,85.57
2018-02-13T04:25:38.343Z,85.85
2018-02-13T04:26:38.110Z,85.47
2018-02-13T04:27:38.370Z,85.57
2018-02-13T04:28:38.381Z,85.57
2018-02-13T04:29:38.394Z,85.57
2018-02-13T04:30:38.406Z,85.66
2018-02-13T04:31:38.160Z,85.38
2018-02-13T04:32:38.170Z,85.47
2018-02-13T04:33:38.434Z,85.47
2018-02-13T04:34:38.191Z,85.85
2018-02-13T04:35:38.505Z,85.66
2018-02-13T04:36:38.469Z,85.47
2018-02-13T04:37:38.485Z,85.76
2018-02-13T04:38:38.240Z,85.57
2018-02-13T04:39:38.245Z,86.04
2018-02-13T04:40:38.514Z,86.52
2018-02-13T04:41:38.520Z,86.23
2018-02-13T04:42:38.277Z,86.33
2018-02-13T04:43:38.537Z,86.33
2018-02-13T04:44:38.299Z,86.33
2018-02-13T04:45:38.564Z,85.95
2018-02-13T04:46:38.575Z,85.95
2018-02-13T04:47:38.359Z,86.14
2018-02-13T04:48:38.597Z,86.52
2018-02-13T04:49:38.625Z,86.33
2018-02-13T04:50:38.617Z,86.23
2018-02-13T04:51:38.628Z,86.52
2018-02-13T04:52:38.385Z,86.23
2018-02-13T04:53:38.649Z,86.04
2018-02-13T04:54:38.722Z,85.85
2018-02-13T04:55:38.672Z,86.33
2018-02-13T04:56:38.688Z,86.33
2018-02-13T04:57:38.694Z,86.71
2018-02-13T04:58:38.452Z,86.42
2018-02-13T04:59:38.713Z,86.33
2018-02-13T05:00:38.786Z,86.42
2018-02-13T05:01:38.742Z,86.9
2018-02-13T05:02:38.746Z,86.14
2018-02-13T05:03:38.763Z,86.23
2018-02-13T05:04:38.772Z,86.42
2018-02-13T05:05:38.528Z,86.33
2018-02-13T05:06:38.791Z,86.33
2018-02-13T05:07:38.554Z,86.33
2018-02-13T05:08:38.810Z,86.42
2018-02-13T05:09:38.571Z,86.8
2018-02-13T05:10:38.833Z,86.9
2018-02-13T05:11:38.842Z,86.9
2018-02-13T05:12:38.603Z,86.9
2018-02-13T05:13:38.865Z,86.23
2018-02-13T05:14:38.626Z,86.42
2018-02-13T05:15:38.648Z,86.85
2018-02-13T05:16:38.645Z,86.52
2018-02-13T05:17:38.907Z,86.8
2018-02-13T05:18:38.670Z,87.08
2018-02-13T05:19:38.939Z,86.8
2018-02-13T05:20:38.946Z,86.52
2018-02-13T05:21:38.959Z,86.42
2018-02-13T05:22:38.711Z,85.95
2018-02-13T05:23:38.975Z,86.14
2018-02-13T05:24:38.986Z,86.14
2018-02-13T05:25:38.993Z,85.47
2018-02-13T05:26:38.755Z,86.33
2018-02-13T05:27:39.014Z,85.95
2018-02-13T05:28:38.772Z,86.14
2018-02-13T05:29:39.082Z,85.66
2018-02-13T05:30:38.804Z,85.47
2018-02-13T05:31:38.808Z,86.14
2018-02-13T05:32:39.068Z,86.42
2018-02-13T05:33:38.827Z,85.38
2018-02-13T05:34:39.092Z,85.38
2018-02-13T05:35:38.850Z,85.47
2018-02-13T05:36:39.136Z,85.57
2018-02-13T05:37:38.881Z,85.38
2018-02-13T05:38:39.135Z,85.66
2018-02-13T05:39:38.891Z,85.76
2018-02-13T05:40:39.156Z,85.76
2018-02-13T05:41:38.917Z,85.38
2018-02-13T05:42:38.925Z,85.1
2018-02-13T05:43:39.199Z,85.1
2018-02-13T05:44:38.948Z,85.19
2018-02-13T05:45:38.954Z,85.38
2018-02-13T05:46:39.240Z,85.28
2018-02-13T05:47:39.227Z,85.19
2018-02-13T05:48:39.237Z,85.66
2018-02-13T05:49:39.249Z,85.66
2018-02-13T05:50:39.261Z,85.95
2018-02-13T05:51:39.021Z,85.47
2018-02-13T05:52:39.286Z,85.66
2018-02-13T05:53:39.306Z,85.57
2018-02-13T05:54:39.310Z,85.57
2018-02-13T05:55:39.316Z,86.19
2018-02-13T05:56:39.075Z,85.81
2018-02-13T05:57:39.338Z,86.29
2018-02-13T05:58:39.347Z,86.1
2018-02-13T05:59:39.356Z,86.47
2018-02-13T06:00:39.423Z,86.76
2018-02-13T06:01:39.375Z,86.38
2018-02-13T06:02:39.389Z,86.94
2018-02-13T06:03:39.398Z,86.38
2018-02-13T06:04:39.409Z,85.81
2018-02-13T06:05:39.420Z,86.47
2018-02-13T06:06:39.179Z,86.57
2018-02-13T06:07:39.439Z,86.19
2018-02-13T06:08:39.198Z,86.61
2018-02-13T06:09:39.462Z,85.66
2018-02-13T06:10:39.473Z,86.14
2018-02-13T06:11:39.490Z,86.23
2018-02-13T06:12:39.260Z,85.95
2018-02-13T06:13:39.499Z,85.76
2018-02-13T06:14:39.521Z,86.14
2018-02-13T06:15:39.522Z,86.04
2018-02-13T06:16:39.532Z,85.38
2018-02-13T06:17:39.545Z,85.66
2018-02-13T06:18:39.582Z,85.85
2018-02-13T06:19:39.566Z,85.66
2018-02-13T06:20:39.576Z,85.85
2018-02-13T06:21:39.589Z,85.47
2018-02-13T06:22:39.345Z,86.23
2018-02-13T06:23:39.355Z,85.47
2018-02-13T06:24:39.619Z,85.38
2018-02-13T06:25:39.632Z,85.76
2018-02-13T06:26:39.644Z,85.66
2018-02-13T06:27:39.650Z,85.66
2018-02-13T06:28:39.407Z,85.66
2018-02-13T06:29:39.420Z,85.66
2018-02-13T06:30:39.685Z,85.66
2018-02-13T06:31:39.693Z,85.38
2018-02-13T06:32:39.706Z,85.47
2018-02-13T06:33:39.462Z,85.76
2018-02-13T06:34:39.725Z,85.47
2018-02-13T06:35:39.484Z,85.19
2018-02-13T06:36:39.495Z,84.72
2018-02-13T06:37:39.506Z,84.91
2018-02-13T06:38:39.769Z,84.72
2018-02-13T06:39:39.779Z,84.81
2018-02-13T06:40:39.876Z,84.16
2018-02-13T06:41:39.868Z,84.16
2018-02-13T06:42:39.832Z,84.25
2018-02-13T06:43:39.571Z,84.34
2018-02-13T06:44:39.577Z,83.87
2018-02-13T06:45:39.840Z,83.78
2018-02-13T06:46:39.853Z,84.06
2018-02-13T06:47:39.863Z,83.97
2018-02-13T06:48:39.873Z,83.87
2018-02-13T06:49:39.898Z,83.97
2018-02-13T06:50:39.896Z,83.78
2018-02-13T06:51:39.654Z,83.25
2018-02-13T06:52:39.918Z,83.25
2018-02-13T06:53:39.675Z,82.97
2018-02-13T06:54:39.959Z,82.59
2018-02-13T06:55:39.951Z,82.59
2018-02-13T06:56:39.710Z,82.59
2018-02-13T06:57:39.971Z,82.59
2018-02-13T06:58:39.979Z,82.12
2018-02-13T06:59:39.992Z,82.5
2018-02-13T07:00:40.010Z,82.31
2018-02-13T07:01:39.774Z,82.12
2018-02-13T07:02:39.771Z,82.21
2018-02-13T07:03:39.785Z,82.21
2018-02-13T07:04:39.795Z,82.5
2018-02-13T07:05:40.063Z,82.54
2018-02-13T07:06:40.068Z,83.02
2018-02-13T07:07:40.080Z,83.02
2018-02-13T07:08:40.090Z,83.78
2018-02-13T07:09:40.096Z,83.49
2018-02-13T07:10:39.860Z,83.44
2018-02-13T07:11:39.870Z,82.87
2018-02-13T07:12:40.136Z,82.59
2018-02-13T07:13:40.144Z,82.4
2018-02-13T07:14:40.154Z,82.5
2018-02-13T07:15:40.167Z,81.93
2018-02-13T07:16:39.943Z,82.68
2018-02-13T07:17:40.192Z,82.21
2018-02-13T07:18:39.955Z,82.78
2018-02-13T07:19:40.215Z,82.5
2018-02-13T07:20:39.972Z,82.59
2018-02-13T07:21:40.238Z,82.68
2018-02-13T07:22:40.251Z,82.21
2018-02-13T07:23:40.255Z,82.02
2018-02-13T07:24:40.268Z,81.74
2018-02-13T07:25:40.280Z,82.4
2018-02-13T07:26:40.037Z,82.12
2018-02-13T07:27:40.048Z,82.4
2018-02-13T07:28:40.325Z,82.02
2018-02-13T07:29:40.321Z,82.02
2018-02-13T07:30:40.332Z,82.12
2018-02-13T07:31:40.454Z,81.93
2018-02-13T07:32:40.362Z,82.21
2018-02-13T07:33:40.367Z,82.21
2018-02-13T07:34:40.377Z,82.02
2018-02-13T07:35:40.389Z,81.83
2018-02-13T07:36:40.164Z,81.83
2018-02-13T07:37:40.165Z,81.83
2018-02-13T07:38:40.170Z,80.98
2018-02-13T07:39:40.458Z,80.79
2018-02-13T07:40:40.446Z,80.51
2018-02-13T07:41:40.203Z,80.22
2018-02-13T07:42:40.260Z,80.51
2018-02-13T07:43:40.231Z,80.79
2018-02-13T07:44:40.239Z,81.36
2018-02-13T07:45:40.250Z,80.04
2018-02-13T07:46:40.264Z,80.41
2018-02-13T07:47:40.272Z,80.69
2018-02-13T07:48:40.535Z,80.41
2018-02-13T07:49:40.300Z,79.85
2018-02-13T07:50:40.563Z,79.6
2018-02-13T07:51:40.320Z,80.36
2018-02-13T07:52:40.331Z,80.45
2018-02-13T07:53:40.342Z,79.22
2018-02-13T07:54:40.356Z,79.32
2018-02-13T07:55:40.365Z,79.13
2018-02-13T07:56:40.629Z,78.56
2018-02-13T07:57:40.639Z,78.37
2018-02-13T07:58:40.655Z,78.27
2018-02-13T07:59:40.410Z,77.51
2018-02-13T08:00:40.676Z,77.89
2018-02-13T08:01:40.436Z,77.51
2018-02-13T08:02:40.703Z,77.99
2018-02-13T08:03:40.462Z,77.23
2018-02-13T08:04:40.725Z,77.51
2018-02-13T08:05:40.734Z,77.94
2018-02-13T08:06:40.751Z,77.18
2018-02-13T08:07:40.565Z,76.51
2018-02-13T08:08:40.773Z,76.7
2018-02-13T08:09:40.534Z,76.7
2018-02-13T08:10:40.547Z,76.23
2018-02-13T08:11:40.814Z,75.47
2018-02-13T08:12:40.849Z,75.85
2018-02-13T08:13:40.585Z,75.76
2018-02-13T08:14:40.853Z,76.14
2018-02-13T08:15:40.610Z,75.76
2018-02-13T08:16:40.875Z,75.47
2018-02-13T08:17:40.883Z,75.57
2018-02-13T08:18:40.646Z,76.32
2018-02-13T08:19:40.660Z,76.61
2018-02-13T08:20:40.922Z,76.7
2018-02-13T08:21:40.936Z,76.8
2018-02-13T08:22:40.693Z,76.42
2018-02-13T08:23:40.711Z,76.04
2018-02-13T08:24:40.979Z,76.61
2018-02-13T08:25:40.730Z,76.23
2018-02-13T08:26:40.744Z,76.32
2018-02-13T08:27:40.770Z,74.33
2018-02-13T08:28:40.768Z,73.68
2018-02-13T08:29:41.031Z,74.33
2018-02-13T08:30:40.793Z,74.24
2018-02-13T08:31:40.806Z,74.9
2018-02-13T08:32:41.075Z,75.57
2018-02-13T08:33:41.128Z,75
2018-02-13T08:34:41.095Z,74.81
2018-02-13T08:35:41.107Z,74.05
2018-02-13T08:36:40.869Z,73.77
2018-02-13T08:37:41.132Z,74.33
2018-02-13T08:38:41.145Z,74.71
2018-02-13T08:39:40.913Z,74.24
2018-02-13T08:40:41.169Z,74.24
2018-02-13T08:41:41.184Z,74.15
2018-02-13T08:42:41.197Z,75.66
2018-02-13T08:43:41.209Z,74.71
2018-02-13T08:44:41.218Z,75.19
2018-02-13T08:45:41.232Z,75.19
2018-02-13T08:46:41.245Z,74.77
2018-02-13T08:47:41.253Z,75.19
2018-02-13T08:48:41.031Z,76.67
2018-02-13T08:49:41.277Z,76.67
2018-02-13T08:50:41.335Z,77.46
2018-02-13T08:51:41.303Z,77.27
2018-02-13T08:52:41.318Z,77.27
2018-02-13T08:53:41.329Z,75.66
2018-02-13T08:54:41.348Z,75.85
2018-02-13T08:55:41.397Z,76.42
2018-02-13T08:56:41.363Z,75.19
2018-02-13T08:57:41.379Z,76.42
2018-02-13T08:58:41.388Z,76.04
2018-02-13T08:59:41.401Z,75.28
2018-02-13T09:00:41.413Z,75.95
2018-02-13T09:01:41.425Z,75.57
2018-02-13T09:02:41.205Z,75.57
2018-02-13T09:03:41.198Z,75.57
2018-02-13T09:04:41.211Z,74.81
2018-02-13T09:05:41.225Z,76.32
2018-02-13T09:06:41.488Z,76.04
2018-02-13T09:07:41.504Z,75.28
2018-02-13T09:08:41.268Z,75.38
2018-02-13T09:09:41.529Z,74.43
2018-02-13T09:10:41.288Z,74.43
2018-02-13T09:11:41.301Z,74.52
2018-02-13T09:12:41.562Z,75.09
2018-02-13T09:13:41.326Z,75.19
2018-02-13T09:14:41.624Z,74.71
2018-02-13T09:15:41.354Z,74.9
2018-02-13T09:16:41.363Z,74.24
2018-02-13T09:17:41.630Z,74.28
2018-02-13T09:18:41.695Z,73.43
2018-02-13T09:19:41.645Z,73.14
2018-02-13T09:20:41.664Z,72.67
2018-02-13T09:21:41.429Z,72.38
2018-02-13T09:22:41.693Z,72
2018-02-13T09:23:41.475Z,71.81
2018-02-13T09:24:41.469Z,71.34
2018-02-13T09:25:41.732Z,70.68
2018-02-13T09:26:41.786Z,70.39
2018-02-13T09:27:41.759Z,70.58
2018-02-13T09:28:41.524Z,70.2
2018-02-13T09:29:41.784Z,70.01
2018-02-13T09:30:41.553Z,70.68
2018-02-13T09:31:41.810Z,70.58
2018-02-13T09:32:41.823Z,70.3
2018-02-13T09:33:41.583Z,70.11
2018-02-13T09:34:41.850Z,69.82
2018-02-13T09:35:41.863Z,69.38
2018-02-13T09:36:41.918Z,69.67
2018-02-13T09:37:41.633Z,69.2
2018-02-13T09:38:41.902Z,68.63
2018-02-13T09:39:41.662Z,68.06
2018-02-13T09:40:41.929Z,67.4
2018-02-13T09:41:41.941Z,67.21
2018-02-13T09:42:41.709Z,67.4
2018-02-13T09:43:41.975Z,66.16
2018-02-13T09:44:41.729Z,66.35
2018-02-13T09:45:41.765Z,66.74
2018-02-13T09:46:42.015Z,65.41
2018-02-13T09:47:42.034Z,66.74
2018-02-13T09:48:42.040Z,66.1
2018-02-13T09:49:42.047Z,65.53
2018-02-13T09:50:42.067Z,65.72
2018-02-13T09:51:42.076Z,64.49
2018-02-13T09:52:42.091Z,64.3
2018-02-13T09:53:41.873Z,63.45
2018-02-13T09:54:42.119Z,62.31
2018-02-13T09:55:42.131Z,62.43
2018-02-13T09:56:42.146Z,61.11
2018-02-13T09:57:42.161Z,61.2
2018-02-13T09:58:41.924Z,60.89
2018-02-13T09:59:42.204Z,61.27
2018-02-13T10:00:41.957Z,60.79
2018-02-13T10:01:41.968Z,60.16
2018-02-13T10:02:41.978Z,60.44
2018-02-13T10:03:41.994Z,58.83
2018-02-13T10:04:42.009Z,58.92
2018-02-13T10:05:42.274Z,58.73
2018-02-13T10:06:42.287Z,57.69
2018-02-13T10:07:42.068Z,58.07
2018-02-13T10:08:42.065Z,57.5
2018-02-13T10:09:42.085Z,56.1
2018-02-13T10:10:42.347Z,55.35
2018-02-13T10:11:42.108Z,54.11
2018-02-13T10:12:42.382Z,54.58
2018-02-13T10:13:42.396Z,54.78
2018-02-13T10:14:42.180Z,53.85
2018-02-13T10:15:42.172Z,53.85
2018-02-13T10:16:42.455Z,54.61
2018-02-13T10:17:42.454Z,53.38
2018-02-13T10:18:42.219Z,52.91
2018-02-13T10:19:42.487Z,50.74
2018-02-13T10:20:42.503Z,50.18
2018-02-13T10:21:42.523Z,50.93
2018-02-13T10:22:42.535Z,48.85
2018-02-13T10:23:42.555Z,49.04
2018-02-13T10:24:42.571Z,48.11
2018-02-13T10:25:42.335Z,48.21
2018-02-13T10:26:42.666Z,47.37
2018-02-13T10:27:42.371Z,47.85
2018-02-13T10:28:42.396Z,47.37
2018-02-13T10:29:42.664Z,48.03
2018-02-13T10:30:42.677Z,47.85
2018-02-13T10:31:42.447Z,47.18
2018-02-13T10:32:42.462Z,46.99
2018-02-13T10:33:42.737Z,47.37
2018-02-13T10:34:42.752Z,47.92
2018-02-13T10:35:42.772Z,47.63
2018-02-13T10:36:42.795Z,47.92
2018-02-13T10:37:42.578Z,47.94
2018-02-13T10:38:42.838Z,47.63
2018-02-13T10:39:42.592Z,47.82
2018-02-13T10:40:42.863Z,47.89
2018-02-13T10:41:42.884Z,49.2
2018-02-13T10:42:42.648Z,50.91
2018-02-13T10:43:42.923Z,48.63
2018-02-13T10:44:42.938Z,47.97
2018-02-13T10:45:42.954Z,48.16
2018-02-13T10:46:42.971Z,48.41
2018-02-13T10:47:42.986Z,48.91
2018-02-13T10:48:43.002Z,47.77
2018-02-13T10:49:43.027Z,47.13
2018-02-13T10:50:43.044Z,46.28
2018-02-13T10:51:43.068Z,45.71
2018-02-13T10:52:43.078Z,45.71
2018-02-13T10:53:42.845Z,45.33
2018-02-13T10:54:43.116Z,45.42
2018-02-13T10:55:43.140Z,45.04
2018-02-13T10:56:43.157Z,45.14
2018-02-13T10:57:43.170Z,45.04
2018-02-13T10:58:43.199Z,44.85
2018-02-13T10:59:42.961Z,44.76
2018-02-13T11:00:42.978Z,44.67
2018-02-13T11:01:43.000Z,45.33
2018-02-13T11:02:43.263Z,45.04
2018-02-13T11:03:43.299Z,44.76
2018-02-13T11:04:43.052Z,44.85
2018-02-13T11:05:43.070Z,44
2018-02-13T11:06:43.358Z,44.45
2018-02-13T11:07:43.102Z,44.83
2018-02-13T11:08:43.378Z,44.64
2018-02-13T11:09:43.394Z,44.07
2018-02-13T11:10:43.404Z,44.64
2018-02-13T11:11:43.171Z,44.17
2018-02-13T11:12:43.434Z,43.6
2018-02-13T11:13:43.464Z,44.62
2018-02-13T11:14:43.473Z,44.9
2018-02-13T11:15:43.493Z,45.57
2018-02-13T11:16:43.260Z,45.85
2018-02-13T11:17:43.272Z,46.42
2018-02-13T11:18:43.543Z,47.06
2018-02-13T11:19:43.305Z,46.59
2018-02-13T11:20:43.578Z,45.73
2018-02-13T11:21:43.598Z,45.73
2018-02-13T11:22:43.613Z,45.83
2018-02-13T11:23:43.374Z,45.24
2018-02-13T11:24:43.650Z,45.92
2018-02-13T11:25:43.413Z,45.54
2018-02-13T11:26:43.675Z,45.17
2018-02-13T11:27:43.693Z,44.53
2018-02-13T11:28:43.458Z,43.57
2018-02-13T11:29:43.722Z,43.57
2018-02-13T11:30:43.501Z,43.69
2018-02-13T11:31:43.761Z,43.31
2018-02-13T11:32:43.530Z,43.21
2018-02-13T11:33:43.800Z,42.08
2018-02-13T11:34:43.562Z,42.27
2018-02-13T11:35:43.581Z,42.17
2018-02-13T11:36:43.600Z,43.21
2018-02-13T11:37:43.877Z,43.5
2018-02-13T11:38:43.885Z,43.21
2018-02-13T11:39:43.648Z,43.38
2018-02-13T11:40:43.667Z,43.95
2018-02-13T11:41:43.936Z,44.71
2018-02-13T11:42:43.955Z,45.26
2018-02-13T11:43:43.987Z,45.07
2018-02-13T11:44:43.988Z,44.53
2018-02-13T11:45:44.014Z,44.4
2018-02-13T11:46:43.770Z,44.5
2018-02-13T11:47:43.787Z,45.26
2018-02-13T11:48:43.800Z,44.98
2018-02-13T11:49:43.817Z,44.9
2018-02-13T11:50:44.088Z,45.26
2018-02-13T11:51:44.105Z,45.19
2018-02-13T11:52:44.119Z,45.38
2018-02-13T11:53:43.881Z,44.81
2018-02-13T11:54:44.150Z,44.81
2018-02-13T11:55:44.165Z,44.05
2018-02-13T11:56:43.931Z,44.14
2018-02-13T11:57:44.198Z,44.05
2018-02-13T11:58:43.998Z,43.86
2018-02-13T11:59:44.234Z,43.57
2018-02-13T12:00:43.996Z,44.24
2018-02-13T12:01:44.009Z,44.53
2018-02-13T12:02:44.280Z,44.05
2018-02-13T12:03:44.296Z,44.05
2018-02-13T12:04:44.307Z,44.62
2018-02-13T12:05:44.347Z,45
2018-02-13T12:06:44.091Z,43.67
2018-02-13T12:07:44.108Z,42.05
2018-02-13T12:08:44.381Z,41.77
2018-02-13T12:09:44.393Z,42.15
2018-02-13T12:10:44.406Z,40.63
2018-02-13T12:11:44.423Z,41.58
2018-02-13T12:12:44.439Z,41.67
2018-02-13T12:13:44.454Z,41.58
2018-02-13T12:14:44.218Z,42.53
2018-02-13T12:15:44.482Z,40.72
2018-02-13T12:16:44.248Z,40.25
2018-02-13T12:17:44.269Z,41.3
2018-02-13T12:18:44.533Z,41.2
2018-02-13T12:19:44.301Z,40.92
2018-02-13T12:20:44.331Z,41.39
2018-02-13T12:21:44.583Z,41.96
2018-02-13T12:22:44.349Z,41.77
2018-02-13T12:23:44.615Z,42.08
2018-02-13T12:24:44.383Z,41.89
2018-02-13T12:25:44.400Z,40.77
2018-02-13T12:26:44.482Z,39.43
2018-02-13T12:27:44.446Z,39.26
2018-02-13T12:28:44.455Z,39.25
2018-02-13T12:29:44.725Z,39.43
2018-02-13T12:30:44.742Z,39.84
2018-02-13T12:31:44.514Z,38.71
2018-02-13T12:32:44.526Z,38.53
2018-02-13T12:33:44.797Z,35.88
2018-02-13T12:34:44.821Z,35.13
2018-02-13T12:35:44.587Z,34.77
2018-02-13T12:36:44.608Z,33.74
2018-02-13T12:37:44.885Z,32.79
2018-02-13T12:38:59.580Z,32.12
2018-02-13T12:39:44.929Z,32.69
2018-02-13T12:40:44.949Z,31.66
2018-02-13T12:41:44.723Z,29.85
2018-02-13T12:42:45.006Z,29.56
2018-02-13T12:43:44.778Z,29.19
2018-02-13T12:44:44.795Z,28.43
2018-02-13T12:45:44.820Z,27.2
2018-02-13T12:46:45.097Z,27.3
2018-02-13T12:47:45.116Z,28.43
2018-02-13T12:48:45.145Z,29.96
2018-02-13T12:49:45.170Z,29.11
2018-02-13T12:50:44.950Z,28.65
2018-02-13T12:51:44.972Z,27.9
2018-02-13T12:52:45.004Z,26.76
2018-02-13T12:53:45.301Z,26.39
2018-02-13T12:54:45.306Z,25.26
2018-02-13T12:55:45.080Z,24.6
2018-02-13T12:56:45.359Z,24.14